Map

Track Data

SID SEASON NUMBER BASIN SUBBASIN NAME ISO_TIME NATURE LAT LON WMO_WIND WMO_PRES WMO_AGENCY TRACK_TYPE DIST2LAND LANDFALL IFLAG USA_AGENCY USA_ATCF_ID USA_LAT USA_LON USA_RECORD USA_STATUS USA_WIND USA_PRES USA_SSHS USA_R34_NE USA_R34_SE USA_R34_SW USA_R34_NW USA_R50_NE USA_R50_SE USA_R50_SW USA_R50_NW USA_R64_NE USA_R64_SE USA_R64_SW USA_R64_NW USA_POCI USA_ROCI USA_RMW USA_EYE TOKYO_LAT TOKYO_LON TOKYO_GRADE TOKYO_WIND TOKYO_PRES TOKYO_R50_DIR TOKYO_R50_LONG TOKYO_R50_SHORT TOKYO_R30_DIR TOKYO_R30_LONG TOKYO_R30_SHORT TOKYO_LAND CMA_LAT CMA_LON CMA_CAT CMA_WIND CMA_PRES HKO_LAT HKO_LON HKO_CAT HKO_WIND HKO_PRES NEWDELHI_LAT NEWDELHI_LON NEWDELHI_GRADE NEWDELHI_WIND NEWDELHI_PRES NEWDELHI_CI NEWDELHI_DP NEWDELHI_POCI REUNION_LAT REUNION_LON REUNION_TYPE REUNION_WIND REUNION_PRES REUNION_TNUM REUNION_CI REUNION_RMW REUNION_R34_NE REUNION_R34_SE REUNION_R34_SW REUNION_R34_NW REUNION_R50_NE REUNION_R50_SE REUNION_R50_SW REUNION_R50_NW REUNION_R64_NE REUNION_R64_SE REUNION_R64_SW REUNION_R64_NW BOM_LAT BOM_LON BOM_TYPE BOM_WIND BOM_PRES BOM_TNUM BOM_CI BOM_RMW BOM_R34_NE BOM_R34_SE BOM_R34_SW BOM_R34_NW BOM_R50_NE BOM_R50_SE BOM_R50_SW BOM_R50_NW BOM_R64_NE BOM_R64_SE BOM_R64_SW BOM_R64_NW BOM_ROCI BOM_POCI BOM_EYE BOM_POS_METHOD BOM_PRES_METHOD NADI_LAT NADI_LON NADI_CAT NADI_WIND NADI_PRES WELLINGTON_LAT WELLINGTON_LON WELLINGTON_WIND WELLINGTON_PRES DS824_LAT DS824_LON DS824_STAGE DS824_WIND DS824_PRES TD9636_LAT TD9636_LON TD9636_STAGE TD9636_WIND TD9636_PRES TD9635_LAT TD9635_LON TD9635_WIND TD9635_PRES TD9635_ROCI NEUMANN_LAT NEUMANN_LON NEUMANN_CLASS NEUMANN_WIND NEUMANN_PRES MLC_LAT MLC_LON MLC_CLASS MLC_WIND MLC_PRES USA_GUST BOM_GUST BOM_GUST_PER REUNION_GUST REUNION_GUST_PER USA_SEAHGT USA_SEARAD_NE USA_SEARAD_SE USA_SEARAD_SW USA_SEARAD_NW STORM_SPEED STORM_DIR
1999213N12144 1999 54 WP MM PAUL 1999-07-31 18:00:00 NR 11.9000 144.400 main 1587 1587 O_____________ jtwc_wp WP121999 11.9000 144.400 15 -1 10 301
1999213N12144 1999 54 WP MM PAUL 1999-07-31 21:00:00 NR 12.1452 143.983 main 1616 1616 P_____________ WP121999 12.1452 143.983 15 -1 9 303
1999213N12144 1999 54 WP MM PAUL 1999-08-01 00:00:00 NR 12.4000 143.600 main 1658 1658 O_____________ jtwc_wp WP121999 12.4000 143.600 15 -1 9 308
1999213N12144 1999 54 WP MM PAUL 1999-08-01 03:00:00 NR 12.6774 143.277 main 1697 1694 P_____________ WP121999 12.6774 143.277 15 -1 8 316
1999213N12144 1999 54 WP MM PAUL 1999-08-01 06:00:00 NR 13.0000 143.000 main 1719 1719 O_____________ jtwc_wp WP121999 13.0000 143.000 15 -1 9 323
1999213N12144 1999 54 WP MM PAUL 1999-08-01 09:00:00 NR 13.3775 142.742 main 1752 1752 P_____________ WP121999 13.3775 142.742 15 -1 9 329
1999213N12144 1999 54 WP MM PAUL 1999-08-01 12:00:00 NR 13.8000 142.500 main 1789 1789 O_____________ jtwc_wp WP121999 13.8000 142.500 15 -1 10 331
1999213N12144 1999 54 WP MM PAUL 1999-08-01 15:00:00 NR 14.2425 142.250 main 1815 1802 P_____________ WP121999 14.2425 142.250 17 -1 10 332
1999213N12144 1999 54 WP MM PAUL 1999-08-01 18:00:00 NR 14.7000 142.000 main 1804 1789 O_____________ jtwc_wp WP121999 14.7000 142.000 20 -1 10 332
1999213N12144 1999 54 WP MM PAUL 1999-08-01 21:00:00 NR 15.1574 141.757 main 1793 1766 P_____________ WP121999 15.1574 141.757 20 -1 10 332
1999213N12144 1999 54 WP MM PAUL 1999-08-02 00:00:00 NR 15.6000 141.500 main 1768 1745 O_____________ jtwc_wp WP121999 15.6000 141.500 20 -1 10 329
1999213N12144 1999 54 WP MM PAUL 1999-08-02 03:00:00 NR 16.0149 141.215 main 1745 1724 P_____________ WP121999 16.0149 141.215 20 -1 10 324
1999213N12144 1999 54 WP MM PAUL 1999-08-02 06:00:00 NR 16.4000 140.900 main 1724 1699 O_____________ jtwc_wp WP121999 16.4000 140.900 20 -1 10 318
1999213N12144 1999 54 WP MM PAUL 1999-08-02 09:00:00 NR 16.7426 140.535 main 1691 1670 P_____________ WP121999 16.7426 140.535 20 -1 10 316
1999213N12144 1999 54 WP MM PAUL 1999-08-02 12:00:00 NR 17.1000 140.200 main 1673 1663 O_____________ jtwc_wp WP121999 17.1000 140.200 20 -1 9 326
1999213N12144 1999 54 WP MM PAUL 1999-08-02 15:00:00 NR 17.5048 139.999 main 1667 1662 P_____________ WP121999 17.5048 139.999 20 -1 10 337
1999213N12144 1999 54 WP MM PAUL 1999-08-02 18:00:00 NR 18.0000 139.800 main 1666 1643 O_____________ jtwc_wp WP121999 18.0000 139.800 20 -1 12 335
1999213N12144 1999 54 WP MM PAUL 1999-08-02 21:00:00 NR 18.6351 139.458 main 1643 1580 P_____________ WP121999 18.6351 139.458 20 -1 13 342
1999213N12144 1999 54 WP MM PAUL 1999-08-03 00:00:00 TS 19.2000 139.400 1000 tokyo main 1580 1547 OOO___________ jtwc_wp WP121999 19.3000 139.100 20 -1 19.0000 140.000 2 1000 0 0 0 19.0000 140.000 1 23 1002 10 0
1999213N12144 1999 54 WP MM PAUL 1999-08-03 03:00:00 TS 19.6117 139.471 main 1547 1503 PPP___________ WP121999 19.8723 138.842 20 -1 19.3447 140.106 2 1000 0 0 19.3574 140.092 1 23 1002 8 3
1999213N12144 1999 54 WP MM PAUL 1999-08-03 06:00:00 TS 20.0400 139.440 1000 tokyo main 1503 1444 OOO___________ jtwc_wp WP121999 20.4000 138.600 20 -1 19.8000 140.000 2 1000 0 0 0 19.8000 140.000 1 23 1002 10 343
1999213N12144 1999 54 WP MM PAUL 1999-08-03 09:00:00 TS 20.5611 139.157 main 1434 1375 PPP___________ WP121999 20.9150 138.293 22 -1 20.4030 139.566 2 1000 0 0 20.3653 139.611 1 26 1001 11 328
1999213N12144 1999 54 WP MM PAUL 1999-08-03 12:00:00 TS 20.9923 138.808 1000 tokyo main 1375 1345 OOOO__________ jtwc_wp WP121999 21.4000 138.000 25 -1 20.9000 139.100 2 1000 0 0 0 20.9000 139.100 1 29 1000 20.1000 139.700 TD 30 1000 9 321
1999213N12144 1999 54 WP MM PAUL 1999-08-03 15:00:00 TS 21.2449 138.569 main 1345 1300 PPPP__________ WP121999 21.8499 137.792 25 -1 20.9498 138.932 2 1000 0 0 21.2073 138.692 1 29 1000 20.7004 139.151 TD 30 1000 7 321
1999213N12144 1999 54 WP MM PAUL 1999-08-03 18:00:00 TS 21.5400 138.333 1000 tokyo main 1300 1241 OOOO__________ jtwc_wp WP121999 22.3000 137.600 25 -1 21.0000 138.900 2 1000 0 0 0 21.5000 138.300 1 29 1000 21.3000 138.600 TD 30 1000 9 329
1999213N12144 1999 54 WP MM PAUL 1999-08-03 21:00:00 TS 21.9947 138.090 main 1241 1168 PPPP__________ WP121999 22.7849 137.380 27 -1 21.3695 139.002 2 998 0 0 21.9247 137.929 1 31 999 21.8998 138.050 TD 30 1000 12 333
1999213N12144 1999 54 WP MM PAUL 1999-08-04 00:00:00 TS 22.6000 137.750 996 tokyo main 1168 1060 OOOO__________ jtwc_wp WP121999 23.3000 137.100 30 -1 22.1000 138.900 2 996 0 0 0 22.5000 137.500 2 34 998 22.5000 137.500 TD 30 1000 16 330
1999213N12144 1999 54 WP MM PAUL 1999-08-04 03:00:00 TS 23.4003 137.199 main 1060 952 PPPP__________ WP121999 23.8499 136.737 30 -1 23.3663 138.195 2 994 0 0 23.2778 136.916 2 34 996 23.1073 136.950 TD 32 997 19 326
1999213N12144 1999 54 WP MM PAUL 1999-08-04 06:00:00 TS 24.2000 136.575 992 tokyo main 952 868 OOOO__________ jtwc_wp WP121999 24.4000 136.300 30 -1 24.6000 137.300 2 992 0 0 0 24.1000 136.300 2 34 995 23.7000 136.400 TS 35 994 18 323
1999213N12144 1999 54 WP MM PAUL 1999-08-04 09:00:00 TS 24.7932 136.048 main 863 799 PPPP__________ WP121999 24.9299 135.822 30 -1 25.1761 136.712 2 991 0 0 24.8019 135.807 2 34 995 24.2648 135.850 TS 35 994 15 318
1999213N12144 1999 54 WP MM PAUL 1999-08-04 12:00:00 TS 25.2750 135.500 35 990 tokyo main 789 720 OOOO__________ jtwc_wp WP121999 25.4000 135.300 30 -1 25.5000 136.100 3 35 990 0 2 250 150 0 25.4000 135.300 2 34 995 24.8000 135.300 TS 35 994 15 311
1999213N12144 1999 54 WP MM PAUL 1999-08-04 15:00:00 TS 25.7397 134.825 main 714 644 PPPP__________ WP121999 25.7877 134.727 32 -1 25.9159 135.200 3 37 987 0 2 275 185 25.9178 134.643 2 36 993 25.3375 134.728 TS 37 992 15 305
1999213N12144 1999 54 WP MM PAUL 1999-08-04 18:00:00 TS 26.1250 134.175 40 985 tokyo main 644 590 OOOO__________ jtwc_wp WP121999 26.1000 134.200 35 0 26.3000 134.300 3 40 985 0 2 300 220 0 26.3000 134.000 2 38 992 25.8000 134.200 TS 40 990 12 305
1999213N12144 1999 54 WP MM PAUL 1999-08-04 21:00:00 TS 26.4473 133.687 main 590 542 PPPP__________ WP121999 26.3870 133.835 40 0 26.7277 133.639 3 40 985 0 2 350 220 26.5446 133.512 2 43 988 26.1298 133.762 TS 42 987 10 304
1999213N12144 1999 54 WP MM PAUL 1999-08-05 00:00:00 TS 26.6750 133.275 40 985 tokyo main 542 511 OOOO__________ jtwc_wp WP121999 26.6000 133.500 45 0 27.0000 133.100 3 40 985 0 2 400 220 0 26.7000 133.100 3 48 985 26.4000 133.400 TS 45 985 9 296
1999213N12144 1999 54 WP MM PAUL 1999-08-05 03:00:00 TS 26.8257 132.818 45 985 tokyo main 511 489 POPP__________ WP121999 26.7228 133.020 47 0 27.0000 132.600 3 45 985 0 2 400 200 0 26.8801 132.633 3 51 985 26.7000 133.018 TS 45 985 7 292
1999213N12144 1999 54 WP MM PAUL 1999-08-05 06:00:00 TS 26.9500 132.500 45 980 tokyo main 479 465 OOOO__________ jtwc_wp WP121999 26.8000 132.600 50 0 27.0000 132.300 3 45 980 0 2 400 200 0 27.0000 132.300 3 54 985 27.0000 132.800 TS 45 985 4 303
1999213N12144 1999 54 WP MM PAUL 1999-08-05 09:00:00 TS 27.0555 132.415 45 985 tokyo main 465 465 POPP__________ WP121999 26.8997 132.353 42 0 27.0000 132.200 3 45 985 0 2 425 200 0 27.0223 132.240 3 54 985 27.2999 132.867 TS 42 987 2 352
1999213N12144 1999 54 WP MM PAUL 1999-08-05 12:00:00 TS 27.1500 132.475 45 985 tokyo main 458 458 OOOO__________ jtwc_wp WP121999 27.0000 132.300 35 0 27.0000 132.200 3 45 985 0 2 450 200 0 27.0000 132.300 3 54 985 27.6000 133.100 TS 40 990 3 49
1999213N12144 1999 54 WP MM PAUL 1999-08-05 15:00:00 TS 27.2375 132.656 45 985 tokyo main 466 450 POPP__________ WP121999 27.0399 132.425 35 0 27.1000 132.600 3 45 985 0 2 400 200 0 26.9173 132.233 3 49 985 27.8926 133.365 TS 40 990 5 56
1999213N12144 1999 54 WP MM PAUL 1999-08-05 18:00:00 TS 27.4000 132.900 45 985 tokyo main 454 440 OOOO__________ jtwc_wp WP121999 27.2000 132.700 35 0 27.2000 133.000 3 45 985 0 2 375 200 0 27.0000 132.300 2 44 985 28.2000 133.600 TS 40 990 8 47
1999213N12144 1999 54 WP MM PAUL 1999-08-05 21:00:00 TS 27.7615 133.280 45 985 tokyo main 436 410 POPP__________ WP121999 27.6103 133.123 32 -1 27.5000 133.500 3 45 985 0 2 375 200 0 27.4233 132.756 2 41 987 28.5123 133.739 TS 40 990 10 32
1999213N12144 1999 54 WP MM PAUL 1999-08-06 00:00:00 TS 28.2750 133.525 45 985 tokyo main 400 335 OOOO__________ jtwc_wp WP121999 28.2000 133.400 30 -1 27.9000 133.800 3 45 985 0 2 375 200 0 28.1000 133.200 2 38 990 28.9000 133.700 TS 40 990 13 7
1999213N12144 1999 54 WP MM PAUL 1999-08-06 03:00:00 TS 29.0459 133.450 40 985 tokyo main 329 235 POPP__________ WP121999 28.8922 133.243 27 -1 28.9000 133.800 3 40 985 0 2 300 200 0 28.9493 133.307 2 38 990 29.4423 133.448 TS 40 990 16 344
1999213N12144 1999 54 WP MM PAUL 1999-08-06 06:00:00 TS 29.8500 133.000 40 985 tokyo main 226 146 OOOO__________ jtwc_wp WP121999 29.6000 132.800 25 -1 30.0000 133.100 3 40 985 0 2 300 200 0 29.8000 133.100 2 38 990 30.0000 133.000 TS 40 990 16 327
1999213N12144 1999 54 WP MM PAUL 1999-08-06 09:00:00 TS 30.4162 132.408 40 985 tokyo main 146 76 POPP__________ WP121999 30.2177 132.246 25 -1 30.6000 132.300 3 40 985 0 2 250 150 0 30.4173 132.620 2 38 990 30.4297 132.467 TS 40 990 14 312
1999213N12144 1999 54 WP MM PAUL 1999-08-06 12:00:00 TS 30.7750 131.800 35 990 tokyo main 76 14 OOOO__________ jtwc_wp WP121999 30.7000 131.600 25 -1 30.7000 131.900 3 35 990 0 2 200 100 0 30.9000 131.900 2 38 990 30.8000 131.800 TS 40 990 14 298
1999213N12144 1999 54 WP MM PAUL 1999-08-06 15:00:00 TS 31.0863 130.927 35 990 tokyo main 9 0 POPP__________ WP121999 30.9719 131.021 25 -1 30.9000 130.600 3 35 990 0 2 200 100 0 31.3083 131.049 2 38 990 31.1649 131.037 TS 40 990 16 295
1999213N12144 1999 54 WP MM PAUL 1999-08-06 18:00:00 TS 31.4500 130.125 35 990 tokyo main 18 14 OOOO__________ jtwc_wp WP121999 31.2000 130.400 25 -1 31.4000 129.700 3 35 990 0 2 200 100 0 31.7000 130.200 2 38 990 31.5000 130.200 TS 40 990 14 302
1999213N12144 1999 54 WP MM PAUL 1999-08-06 21:00:00 TS 31.8549 129.495 35 992 tokyo main 65 65 POPP__________ WP121999 31.5769 129.702 25 -1 31.8000 129.300 3 35 992 0 2 150 80 0 32.2356 129.622 2 36 991 31.8071 129.357 TS 40 990 14 309
1999213N12144 1999 54 WP MM PAUL 1999-08-07 00:00:00 TS 32.3500 128.800 35 992 tokyo main 87 87 OOOO__________ jtwc_wp WP121999 32.0000 128.900 25 -1 32.6000 128.800 3 35 992 0 2 150 80 0 32.7000 129.000 2 34 992 32.1000 128.500 TS 40 990 16 300
1999213N12144 1999 54 WP MM PAUL 1999-08-07 03:00:00 TS 32.6587 127.867 994 tokyo main 122 48 POPP__________ WP121999 32.4158 127.936 25 -1 32.9000 127.900 2 994 0 0 0 32.9194 127.984 2 31 993 32.3994 127.649 TS 37 991 17 291
1999213N12144 1999 54 WP MM PAUL 1999-08-07 06:00:00 TS 32.9400 126.933 994 tokyo main 43 11 OOOO__________ jtwc_wp WP121999 32.8000 127.000 25 -1 33.2000 126.900 2 994 0 0 0 33.0000 127.000 1 29 995 32.7000 126.800 TS 35 992 15 289
1999213N12144 1999 54 WP MM PAUL 1999-08-07 09:00:00 TS 33.1362 126.214 main 14 14 PPPP__________ WP121999 33.1062 126.311 25 -1 33.3070 125.985 2 994 0 0 33.0628 126.477 1 29 995 33.0011 125.951 TS 32 993 12 286
1999213N12144 1999 54 WP MM PAUL 1999-08-07 12:00:00 TS 33.2692 125.562 994 tokyo main 55 55 OOOO__________ jtwc_wp WP121999 33.4000 125.700 25 -1 33.3000 125.100 2 994 0 0 0 33.1000 126.000 1 29 995 33.3000 125.100 TD 30 994 13 283
1999213N12144 1999 54 WP MM PAUL 1999-08-07 15:00:00 TS 33.4182 124.739 main 139 139 PPP___________ WP121999 33.7948 125.001 25 -1 33.3089 124.037 2 995 0 0 33.1508 125.180 1 29 995 TD 14 281
1999213N12144 1999 54 WP MM PAUL 1999-08-07 18:00:00 TS 33.5333 123.933 996 tokyo main 214 214 OOO___________ jtwc_wp WP121999 34.1000 124.300 25 -1 33.3000 123.200 2 996 0 0 0 33.2000 124.300 1 29 995 11 277
1999213N12144 1999 54 WP MM PAUL 1999-08-07 21:00:00 TS 33.5518 123.378 main 229 200 PPP___________ WP121999 34.1220 123.641 25 -1 33.2910 122.967 2 997 0 0 33.2424 123.525 1 26 997 8 272
1999213N12144 1999 54 WP MM PAUL 1999-08-08 00:00:00 TS 33.5667 122.933 998 tokyo main 193 167 OOO___________ jtwc_wp WP121999 34.1000 123.000 25 -1 33.3000 122.900 2 998 0 0 0 33.3000 122.900 1 23 999 8 277
1999213N12144 1999 54 WP MM PAUL 1999-08-08 03:00:00 TS 33.6459 122.434 main 159 131 PPP___________ WP121999 34.2630 122.283 22 -1 33.3053 122.522 2 998 0 0 33.3693 122.497 1 21 999 8 283
1999213N12144 1999 54 WP MM PAUL 1999-08-08 06:00:00 TS 33.7364 122.027 998 tokyo main 131 115 OOO___________ jtwc_wp WP121999 34.5000 121.700 20 -1 33.4000 122.100 2 998 0 0 0 33.5000 122.200 0 19 999 6 293
1999213N12144 1999 54 WP MM PAUL 1999-08-08 09:00:00 TS 33.8937 121.745 main 110 102 PPP___________ WP121999 34.7496 121.409 17 -1 33.6698 121.785 2 998 0 0 33.6897 121.872 0 19 999 6 309
1999213N12144 1999 54 WP MM PAUL 1999-08-08 12:00:00 TS 34.1111 121.478 998 tokyo main 102 74 OOO___________ jtwc_wp WP121999 35.0000 121.300 15 -1 34.0000 121.500 2 998 0 0 0 34.0000 121.500 0 19 999 7 313
1999213N12144 1999 54 WP MM PAUL 1999-08-08 15:00:00 TS 34.3900 121.108 main 74 56 _PP___________ WP121999 -1 34.2799 121.200 2 998 0 0 34.5001 121.016 0 19 999 9 315
1999213N12144 1999 54 WP MM PAUL 1999-08-08 18:00:00 TS 34.7500 120.700 998 tokyo main 66 62 _OO___________ -1 34.5000 120.900 2 998 0 0 0 35.0000 120.500 0 19 999 9 311
1999213N12144 1999 54 WP MM PAUL 1999-08-08 21:00:00 TS 34.9814 120.280 main 69 54 _PP___________ -1 34.6375 120.585 2 999 0 0 35.3252 119.975 0 19 999 7 300
1999213N12144 1999 54 WP MM PAUL 1999-08-09 00:00:00 TS 35.1000 119.950 1000 tokyo main 54 36 _OO___________ -1 34.7000 120.300 2 1000 0 0 0 35.5000 119.600 0 19 999 4 290
1999213N12144 1999 54 WP MM PAUL 1999-08-09 03:00:00 TS 35.1249 119.796 main 36 36 _PP___________ -1 34.7125 120.080 2 1000 0 0 35.5373 119.512 0 19 999 2 270
1999213N12144 1999 54 WP MM PAUL 1999-08-09 06:00:00 TS 35.1000 119.750 1000 tokyo main 36 _OO___________ -1 34.7000 119.900 2 1000 0 0 0 35.5000 119.600 0 19 999 1 231

Digital Typhoon Data and Search

About IBTrACS Database

This database is a web-friendly format of International Best Track Archive for Climate Stewardship (IBTrACS), a global best track data archive curated by NOAA dating back to 1842.

Updated: 2021-12-03